• Join FlightAware (Why Join?)
  • Login
  • US Flag 
Gobble Gobble! 
02:22AM EST


 

Airport Tracker/Info


-or-


 

Live Flight TrackerFlight Track Log ✈ OPT332 ✈ 09-Nov-2013 ✈ KRNV - KHOU

Flight Track Log - Related Links

Times and Time Zones

All times are in EST time to prevent confusion due to time zone crossing. See the OPT332 flight status page for this flight to view local times or setup timezone preferences in your user account.

Time Position Orientation Groundspeed Altitude Reporting Facility
EST Latitude Longitude Course Direction KTS MPH feet Rate Location/Type
05:02PM 33.7453 -90.7942 220° Southwest 185 213 6,400  Level Memphis Center
05:03PM 33.6903 -90.8283 207° Southwest 229 264 6,800 2,340 Climbing Memphis Center
05:04PM 33.6264 -90.9067 226° Southwest 274 315 11,300 4,080 Climbing Memphis Center
05:05PM 33.5700 -90.9686 222° Southwest 277 319 15,200 3,120 Climbing Memphis Center
05:06PM 33.5122 -91.0322 223° Southwest 281 323 17,800 2,400 Climbing Memphis Center
05:07PM 33.4680 -91.0999 220° Southwest  Level Estimated
05:07PM 33.4500 -91.1003 222° Southwest 298 343 20,200  Level Memphis Center
05:08PM 33.3864 -91.1708 223° Southwest 310 357 22,500 2,280 Climbing Memphis Center
05:09PM 33.3219 -91.2389 221° Southwest 311 358 24,900 2,340 Climbing Memphis Center
05:10PM 33.2486 -91.3192 222° Southwest 303 349 27,300 1,860 Climbing Memphis Center
05:11PM 33.1861 -91.3878 223° Southwest 305 351 28,800 1,200 Climbing Memphis Center
05:12PM 33.1189 -91.4617 223° Southwest 323 372 29,800 1,080 Climbing Memphis Center
05:13PM 33.0467 -91.5386 222° Southwest 342 394 31,100 1,200 Climbing Memphis Center
05:14PM 32.9736 -91.6178 222° Southwest 353 406 32,400 1,260 Climbing Memphis Center
05:15PM 32.8978 -91.6961 221° Southwest 361 415 33,700 780 Climbing Memphis Center
05:16PM 32.8108 -91.7908 222° Southwest 357 411 34,000 120 Climbing Memphis Center
05:17PM 32.7361 -91.8714 222° Southwest 363 418 34,000  Level Memphis Center
05:18PM 32.6628 -91.9528 223° Southwest 364 419 34,000  Level Fort Worth Center
05:19PM 32.5908 -92.0311 223° Southwest 364 419 34,000  Level Fort Worth Center
05:20PM 32.5150 -92.1097 221° Southwest 364 419 34,000  Level Fort Worth Center
05:25PM 32.1312 -92.5727 221° Southwest 359 413 34,000  Level FlightAware ADS-B
05:28PM 31.9745 -92.7633 226° Southwest 360 414 34,000  Level FlightAware ADS-B
05:29PM 31.8559 -92.9077 226° Southwest 359 413 34,000  Level FlightAware ADS-B
05:30PM 31.8268 -92.9594 236° Southwest 358 412 34,000  Level FlightAware ADS-B
05:33PM 31.6763 -93.2042 234° Southwest 34,000  Level FlightAware ADS-B
05:33PM 31.6728 -93.2082 224° Southwest 360 414 34,000  Level FlightAware ADS-B
05:37PM 31.3796 -93.5388 224° Southwest 359 413 34,000  Level FlightAware ADS-B
05:37PM 31.3311 -93.5931 224° Southwest 359 413 34,000  Level FlightAware ADS-B
05:38PM 31.2846 -93.6451 224° Southwest 359 413 34,000  Level FlightAware ADS-B
05:38PM 31.2485 -93.6855 224° Southwest 360 414 34,000  Level FlightAware ADS-B
05:39PM 31.2113 -93.7269 224° Southwest 359 413 34,000  Level FlightAware ADS-B
05:40PM 31.1731 -93.7695 224° Southwest 360 414 34,000  Level FlightAware ADS-B
05:40PM 31.1367 -93.8099 224° Southwest 360 414 34,000  Level FlightAware ADS-B
05:41PM 31.0996 -93.8510 223° Southwest 361 415 34,000 -120 Level FlightAware ADS-B
05:41PM 31.0624 -93.8923 224° Southwest 362 417 33,900 -1,140 Descending FlightAware ADS-B
05:42PM 31.0244 -93.9345 224° Southwest 366 421 32,900 -1,920 Descending FlightAware ADS-B
05:42PM 30.9876 -93.9752 223° Southwest 365 420 32,000 -1,920 Descending FlightAware ADS-B
05:43PM 30.9501 -94.0167 224° Southwest 364 419 31,000 -1,980 Descending FlightAware ADS-B
05:43PM 30.9131 -94.0576 223° Southwest 363 418 30,000 -1,980 Descending FlightAware ADS-B
05:44PM 30.8755 -94.0991 223° Southwest 361 415 29,000 -1,980 Descending FlightAware ADS-B
05:44PM 30.8375 -94.1410 223° Southwest 368 423 28,000 -1,980 Descending FlightAware ADS-B
05:45PM 30.7997 -94.1827 223° Southwest 376 433 27,000 -2,040 Descending FlightAware ADS-B
05:45PM 30.7611 -94.2251 223° Southwest 383 441 26,000 -1,980 Descending FlightAware ADS-B
05:46PM 30.7220 -94.2681 223° Southwest 386 444 25,000 -2,040 Descending FlightAware ADS-B
05:46PM 30.6813 -94.3126 223° Southwest 386 444 23,900 -2,160 Descending FlightAware ADS-B
05:47PM 30.6414 -94.3563 223° Southwest 384 442 22,800 -2,040 Descending FlightAware ADS-B
05:47PM 30.6010 -94.4006 223° Southwest 381 438 21,800 -1,980 Descending FlightAware ADS-B
05:48PM 30.5624 -94.4428 223° Southwest 377 434 20,800 -2,100 Descending FlightAware ADS-B
05:48PM 30.5231 -94.4857 223° Southwest 371 427 19,700 -2,040 Descending FlightAware ADS-B
05:49PM 30.4998 -94.5115 224° Southwest 366 421 19,100 -1,980 Descending FlightAware ADS-B
05:49PM 30.4901 -94.5246 229° Southwest 364 419 18,800 -2,220 Descending FlightAware ADS-B
05:49PM 30.4692 -94.5581 234° Southwest 361 415 18,000 -2,160 Descending FlightAware ADS-B
05:50PM 30.4393 -94.6042 233° Southwest 354 407 17,000 -1,920 Descending FlightAware ADS-B
05:50PM 30.4098 -94.6497 233° Southwest 348 400 16,100 -1,800 Descending FlightAware ADS-B
05:51PM 30.3821 -94.6923 233° Southwest 315 362 15,200 -1,800 Descending FlightAware ADS-B
05:51PM 30.3560 -94.7329 233° Southwest 320 368 14,300 -1,680 Descending FlightAware ADS-B
05:52PM 30.3284 -94.7757 233° Southwest 325 374 13,500 -1,500 Descending FlightAware ADS-B
05:52PM 30.3009 -94.8183 233° Southwest 317 365 12,800 -720 Descending FlightAware ADS-B
05:53PM 30.2739 -94.8598 233° Southwest 314 361 12,800 -720 Level FlightAware ADS-B
05:53PM 30.2473 -94.9009 233° Southwest 317 365 12,100 -1,620 Descending FlightAware ADS-B
05:54PM 30.2210 -94.9413 233° Southwest 300 345 11,200 -1,680 Descending FlightAware ADS-B
05:54PM 30.1972 -94.9779 233° Southwest 267 307 10,400 -1,620 Descending FlightAware ADS-B
05:54PM 30.1858 -94.9954 233° Southwest 257 296 10,000 -1,200 Descending FlightAware ADS-B
05:55PM 30.1748 -95.0124 233° Southwest 251 289 9,800 -420 Descending FlightAware ADS-B
05:55PM 30.1643 -95.0285 233° Southwest 249 287 9,800  Level FlightAware ADS-B
05:55PM 30.1538 -95.0446 233° Southwest 250 288 9,800  Level FlightAware ADS-B
05:55PM 30.1466 -95.0555 233° Southwest 252 290 9,800  Level FlightAware ADS-B
05:55PM 30.1440 -95.0592 231° Southwest 252 290 9,800  Level FlightAware ADS-B
05:55PM 30.1409 -95.0630 227° Southwest 252 290 9,800  Level FlightAware ADS-B
05:55PM 30.1382 -95.0657 221° Southwest 254 292 9,800  Level FlightAware ADS-B
05:56PM 30.1348 -95.0687 217° Southwest 255 293 9,800  Level FlightAware ADS-B
05:56PM 30.1314 -95.0712 212° Southwest 255 293 9,800  Level FlightAware ADS-B
05:56PM 30.1283 -95.0732 209° Southwest 256 295 9,800  Level FlightAware ADS-B
05:56PM 30.1239 -95.0756 205° Southwest 258 297 9,800  Level FlightAware ADS-B
05:56PM 30.1189 -95.0777 200° South 260 299 9,800  Level FlightAware ADS-B
05:56PM 30.1082 -95.0818 198° South 262 302 9,800 -720 Level FlightAware ADS-B
05:56PM 30.0893 -95.0899 200° South 261 300 9,500 -1,440 Descending FlightAware ADS-B
05:56PM 30.0693 -95.0987 201° Southwest 259 298 9,000 -1,740 Descending FlightAware ADS-B
05:57PM 30.0525 -95.1061 201° Southwest 258 297 8,600 -1,740 Descending FlightAware ADS-B
05:57PM 30.0336 -95.1143 201° Southwest 254 292 8,100 -1,500 Descending FlightAware ADS-B
05:57PM 30.0162 -95.1218 200° South 252 290 7,800 -600 Descending FlightAware ADS-B
05:58PM 29.9998 -95.1288 200° South 251 289 7,800  Level FlightAware ADS-B
05:58PM 29.9828 -95.1362 201° Southwest 251 289 7,800  Level FlightAware ADS-B
05:58PM 29.9661 -95.1434 200° South 252 290 7,800  Level FlightAware ADS-B
05:58PM 29.9615 -95.1453 200° South 252 290 7,800  Level FlightAware ADS-B
05:58PM 29.9496 -95.1505 201° Southwest 252 290 7,800  Level FlightAware ADS-B
05:58PM 29.9395 -95.1548 200° South 252 290 7,800  Level FlightAware ADS-B
05:59PM 29.9328 -95.1578 201° Southwest 252 290 7,800  Level FlightAware ADS-B
05:59PM 29.9175 -95.1643 200° South 253 291 7,800  Level FlightAware ADS-B
05:59PM 29.9160 -95.1649 200° South 253 291 7,800 -300 Level FlightAware ADS-B
05:59PM 29.8990 -95.1722 200° South 252 290 7,700 -960 Descending FlightAware ADS-B
05:59PM 29.8845 -95.1784 201° Southwest 249 287 7,400 -1,200 Descending FlightAware ADS-B
05:59PM 29.8823 -95.1794 200° South 248 285 7,400 -900 Level FlightAware ADS-B
06:00PM 29.8661 -95.1864 201° Southwest 245 282 7,100 -1,140 Descending FlightAware ADS-B
06:00PM 29.8624 -95.1880 200° South 244 281 7,100 -840 Level FlightAware ADS-B
06:00PM 29.8501 -95.1932 200° South 243 280 6,900 -900 Descending FlightAware ADS-B
06:00PM 29.8411 -95.1971 201° Southwest 242 278 6,800 -420 Descending FlightAware ADS-B
06:00PM 29.8337 -95.2003 200° South 241 277 6,800  Level FlightAware ADS-B
06:00PM 29.8211 -95.2057 201° Southwest 240 276 6,800  Level FlightAware ADS-B
06:00PM 29.8179 -95.2071 200° South 239 275 6,800  Level FlightAware ADS-B
06:01PM 29.8019 -95.2140 201° Southwest 239 275 6,800 -780 Level FlightAware ADS-B
06:01PM 29.7898 -95.2192 200° South 244 281 6,500 -1,500 Descending FlightAware ADS-B
06:01PM 29.7854 -95.2211 201° Southwest 245 282 6,400 -900 Descending FlightAware ADS-B
06:01PM 29.7714 -95.2271 200° South 248 285 6,200 -1,320 Descending FlightAware ADS-B
06:01PM 29.7682 -95.2284 199° South 248 285 6,100 -1,020 Descending FlightAware ADS-B
06:01PM 29.7652 -95.2297 201° Southwest 248 285 6,100 -720 Level FlightAware ADS-B
06:01PM 29.7609 -95.2311 196° South 248 285 6,000 -1,740 Descending FlightAware ADS-B
06:01PM 29.7570 -95.2319 190° South 248 285 5,900 -900 Descending FlightAware ADS-B
06:01PM 29.7525 -95.2325 187° South 248 285 5,900 -900 Level FlightAware ADS-B
06:01PM 29.7489 -95.2327 183° South 247 284 5,800 -1,500 Descending FlightAware ADS-B
06:01PM 29.7453 -95.2326 179° South 245 282 5,800  Level FlightAware ADS-B
06:02PM 29.7340 -95.2326 180° South 240 276 5,800  Level FlightAware ADS-B
06:02PM 29.7231 -95.2328 181° South 238 274 5,800  Level FlightAware ADS-B
06:02PM 29.7186 -95.2330 182° South 238 274 5,800  Level FlightAware ADS-B
06:02PM 29.7020 -95.2337 182° South 239 275 5,800  Level FlightAware ADS-B
06:02PM 29.6849 -95.2344 182° South 239 275 5,800  Level FlightAware ADS-B
06:02PM 29.6790 -95.2347 182° South 240 276 5,800  Level FlightAware ADS-B
06:03PM 29.6722 -95.2349 182° South 240 276 5,800  Level FlightAware ADS-B
06:03PM 29.6565 -95.2355 182° South 240 276 5,800  Level FlightAware ADS-B
06:03PM 29.6540 -95.2356 183° South 240 276 5,800  Level FlightAware ADS-B
06:03PM 29.6270 -95.2365 182° South 240 276 5,800  Level FlightAware ADS-B
06:03PM 29.6136 -95.2369 182° South 242 278 5,800  Level FlightAware ADS-B
06:03PM 29.6096 -95.2370 181° South 242 278 5,800  Level FlightAware ADS-B
06:04PM 29.5925 -95.2376 182° South 242 278 5,800  Level FlightAware ADS-B
06:04PM 29.5763 -95.2385 183° South 243 280 5,800  Level FlightAware ADS-B
06:04PM 29.5724 -95.2392 189° South 243 280 5,800  Level FlightAware ADS-B
06:04PM 29.5690 -95.2402 194° South 243 280 5,800  Level FlightAware ADS-B
06:04PM 29.5626 -95.2428 199° South 243 280 5,800  Level FlightAware ADS-B
06:04PM 29.5582 -95.2453 206° Southwest 240 276 5,800 -720 Level FlightAware ADS-B
06:04PM 29.5540 -95.2483 212° Southwest 235 270 5,700 -1,680 Descending FlightAware ADS-B
06:04PM 29.5482 -95.2535 218° Southwest 232 267 5,500 -1,680 Descending FlightAware ADS-B
06:05PM 29.5449 -95.2571 224° Southwest 234 269 5,400 -2,340 Descending FlightAware ADS-B
06:05PM 29.5345 -95.2693 226° Southwest 238 274 4,800 -2,640 Descending FlightAware ADS-B
06:05PM 29.5273 -95.2773 224° Southwest 239 275 4,400 -2,520 Descending FlightAware ADS-B
06:05PM 29.5149 -95.2907 223° Southwest 243 280 3,800 -3,000 Descending FlightAware ADS-B
06:05PM 29.5080 -95.2982 223° Southwest 245 282 3,400 -2,400 Descending FlightAware ADS-B
06:05PM 29.5020 -95.3047 223° Southwest 245 282 3,200 -1,500 Descending FlightAware ADS-B
06:06PM 29.4915 -95.3161 224° Southwest 236 272 2,900 -1,200 Descending FlightAware ADS-B
06:06PM 29.4901 -95.3178 225° Southwest 234 269 2,900 -600 Level FlightAware ADS-B
06:06PM 29.4862 -95.3237 233° Southwest 231 266 2,800 -600 Descending FlightAware ADS-B
06:06PM 29.4846 -95.3282 248° West 225 259 2,800  Level FlightAware ADS-B
06:06PM 29.4838 -95.3324 258° West 221 254 2,800  Level FlightAware ADS-B
06:06PM 29.4837 -95.3361 268° West 218 251 2,800  Level FlightAware ADS-B
06:06PM 29.4840 -95.3399 275° West 214 246 2,800  Level FlightAware ADS-B
06:06PM 29.4851 -95.3441 287° West 209 241 2,800  Level FlightAware ADS-B
06:06PM 29.4863 -95.3478 291° West 204 235 2,800  Level FlightAware ADS-B
06:06PM 29.4871 -95.3497 295° West 202 232 2,800  Level FlightAware ADS-B
06:06PM 29.4912 -95.3608 293° West 192 221 2,800  Level FlightAware ADS-B
06:06PM 29.4924 -95.3634 298° West 190 219 2,800  Level FlightAware ADS-B
06:06PM 29.4944 -95.3666 306° West 189 217 2,800  Level FlightAware ADS-B
06:06PM 29.4964 -95.3688 316° Northwest 188 216 2,800  Level FlightAware ADS-B
06:07PM 29.4991 -95.3707 329° Northwest 185 213 2,800  Level FlightAware ADS-B
06:07PM 29.5019 -95.3720 338° Northwest 184 212 2,800  Level FlightAware ADS-B
06:07PM 29.5047 -95.3727 348° North 182 209 2,800  Level FlightAware ADS-B
06:07PM 29.5081 -95.3733 351° North 180 207 2,800 -600 Level FlightAware ADS-B
06:07PM 29.5141 -95.3739 355° North 182 209 2,700 -600 Descending FlightAware ADS-B
06:07PM 29.5175 -95.3740 359° North 184 212 2,700 -1,500 Level FlightAware ADS-B
06:07PM 29.5211 -95.3735 North 186 214 2,500 -1,500 Descending FlightAware ADS-B
06:07PM 29.5272 -95.3720 12° North 189 217 2,400 -1,320 Descending FlightAware ADS-B
06:07PM 29.5354 -95.3698 13° North 190 219 2,200 -1,500 Descending FlightAware ADS-B
06:07PM 29.5375 -95.3692 15° North 190 219 2,100 -600 Descending FlightAware ADS-B
06:08PM 29.5500 -95.3661 12° North 185 213 2,000 -840 Descending FlightAware ADS-B
06:08PM 29.5530 -95.3653 12° North 184 212 1,900 -780 Descending FlightAware ADS-B
06:08PM 29.5562 -95.3646 11° North 182 209 1,900 -420 Level FlightAware ADS-B
06:08PM 29.5635 -95.3623 15° North 180 207 1,800 -960 Descending FlightAware ADS-B
06:08PM 29.5654 -95.3615 20° North 177 204 1,700 -900 Descending FlightAware ADS-B
06:08PM 29.5688 -95.3597 25° Northeast 177 204 1,700 -720 Level FlightAware ADS-B
06:08PM 29.5735 -95.3562 33° Northeast 176 203 1,600 -900 Descending FlightAware ADS-B
06:08PM 29.5757 -95.3542 38° Northeast 176 203 1,600 -900 Level FlightAware ADS-B
06:08PM 29.5778 -95.3522 40° Northeast 175 201 1,500 -780 Descending FlightAware ADS-B
06:08PM 29.5839 -95.3460 41° Northeast 171 197 1,400 -960 Descending FlightAware ADS-B
06:08PM 29.5873 -95.3424 43° Northeast 166 191 1,300 -600 Descending FlightAware ADS-B
06:09PM 29.5898 -95.3397 43° Northeast 161 185 1,300 -720 Level FlightAware ADS-B
06:09PM 29.5965 -95.3326 43° Northeast 144 166 1,100 -960 Descending FlightAware ADS-B
06:09PM 29.5997 -95.3291 43° Northeast 137 158 1,000 -720 Descending FlightAware ADS-B
06:09PM 29.6070 -95.3211 44° Northeast 129 148 800 -840 Descending FlightAware ADS-B
06:09PM 29.6108 -95.3169 44° Northeast 122 140 700 -1,020 Descending FlightAware ADS-B
06:09PM 29.6146 -95.3126 44° Northeast 120 138 500 -960 Descending FlightAware ADS-B
06:10PM 29.6184 -95.3085 44° Northeast 117 135 400 -600 Descending FlightAware ADS-B
06:10PM 29.6223 -95.3041 44° Northeast 115 132 300 -480 Descending FlightAware ADS-B
06:10PM 29.6315 -95.2938 44° Northeast 111 128 100 -120 Descending FlightAware ADS-B
06:11PM 29.6428 -95.2803 44° Northeast 133 153 200 120 Climbing Houston Center